Terminal Aerodrome Forecast
Issued by NWS

Home | Current Version | Previous Version | Text Only | Print | Product List | Glossary On
Versions: 1 2 3 4 5 6 7 8 9 10 11 12 13 14 15 16 17 18 19 20
000
FTUS43 KSGF 231100
TAFBBG
TAF
KBBG 231120Z 2312/2412 14005KT P6SM VCSH SCT040 BKN050
     FM231800 14010KT P6SM VCSH BKN040
     FM240100 13008KT P6SM -SHRA VCTS SCT040CB OVC100
     FM240900 16010KT 5SM -RA VCTS SCT025 OVC040CB=

USA.gov is the U.S. government's official web portal to all federal, state and local government web resources and services.